Time;durP1;ratioP1;P1;durP2;ratioP2;P2;SDS_P1;SDS_P2;PMS_P1;PMS_P2;Temp;Humidity;BMP_temperature;BMP_pressure;BME280_temperature;BME280_humidity;BME280_pressure;Samples;Min_cycle;Max_cycle;Signal;HPM_P1;HPM_P2
2022/10/17 00:01:18;;;;;;;12.40;2.95;;;;;;;18.79;100.00;101680.41;2102270;28;20056;-74
2022/10/17 00:02:39;;;;;;;12.75;3.67;;;;;;;18.76;100.00;101672.41;2093860;28;20182;-74
2022/10/17 00:04:02;;;;;;;17.17;4.53;;;;;;;18.78;100.00;101680.41;2093668;28;20493;-73
2022/10/17 00:05:24;;;;;;;12.48;3.25;;;;;;;18.78;100.00;101681.28;2093983;28;20064;-74
2022/10/17 00:06:46;;;;;;;15.65;3.90;;;;;;;18.80;100.00;101679.50;2098783;28;20122;-73
2022/10/17 00:08:08;;;;;;;16.45;3.40;;;;;;;18.80;100.00;101678.63;2102089;28;20051;-74
2022/10/17 00:09:30;;;;;;;15.00;3.83;;;;;;;18.78;100.00;101675.94;2098669;28;20048;-74
2022/10/17 00:10:57;;;;;;;11.18;4.00;;;;;;;18.78;100.00;101675.94;2101772;28;20723;-73
2022/10/17 00:12:20;;;;;;;11.35;3.17;;;;;;;18.78;100.00;101664.34;2094770;28;20060;-73
2022/10/17 00:13:45;;;;;;;14.63;4.47;;;;;;;18.77;100.00;101666.16;2091169;28;20603;-73
2022/10/17 00:15:07;;;;;;;13.63;4.13;;;;;;;18.76;100.00;101663.50;2100368;28;20089;-73
2022/10/17 00:16:32;;;;;;;33.90;4.57;;;;;;;18.75;100.00;101681.31;2101682;28;20056;-73
2022/10/17 00:17:54;;;;;;;13.77;4.20;;;;;;;18.75;100.00;101685.78;2102743;28;20036;-73
2022/10/17 00:19:16;;;;;;;17.02;4.55;;;;;;;18.73;100.00;101680.41;2102945;28;20060;-73
2022/10/17 00:20:37;;;;;;;12.20;3.65;;;;;;;18.73;100.00;101680.41;2093092;28;20576;-73
2022/10/17 00:22:00;;;;;;;11.55;3.63;;;;;;;18.72;100.00;101673.28;2106517;28;20058;-74
2022/10/17 00:23:21;;;;;;;11.13;3.38;;;;;;;18.73;100.00;101685.78;2104078;28;20047;-73
2022/10/17 00:24:44;;;;;;;10.98;3.60;;;;;;;18.72;100.00;101678.63;2093509;28;20131;-73
2022/10/17 00:26:05;;;;;;;13.85;3.53;;;;;;;18.71;100.00;101687.56;2094012;28;20048;-73
2022/10/17 00:27:28;;;;;;;13.55;3.90;;;;;;;18.71;100.00;101683.09;2098847;28;20051;-73
2022/10/17 00:28:53;;;;;;;10.45;3.50;;;;;;;18.71;100.00;101682.19;2093438;28;20101;-73
2022/10/17 00:30:16;;;;;;;16.73;3.88;;;;;;;18.71;100.00;101672.41;2100012;28;20052;-73
2022/10/17 00:31:39;;;;;;;13.48;3.22;;;;;;;18.71;100.00;101687.56;2101150;28;20495;-74
2022/10/17 00:33:00;;;;;;;13.15;3.13;;;;;;;18.70;100.00;101688.47;2093622;28;20044;-73
2022/10/17 00:34:23;;;;;;;11.23;3.45;;;;;;;18.71;100.00;101688.44;2090728;28;20090;-73
2022/10/17 00:35:47;;;;;;;15.82;3.88;;;;;;;18.73;100.00;101695.59;2100028;28;20218;-73
2022/10/17 00:37:10;;;;;;;16.92;3.50;;;;;;;18.74;100.00;101695.59;2102120;28;20526;-73
2022/10/17 00:38:31;;;;;;;15.75;4.20;;;;;;;18.75;100.00;101694.69;2085548;28;20524;-73
2022/10/17 00:39:54;;;;;;;21.13;4.32;;;;;;;18.74;100.00;101690.22;2095138;28;20085;-73
2022/10/17 00:41:19;;;;;;;16.92;3.90;;;;;;;18.74;100.00;101684.88;2101871;28;20068;-73
2022/10/17 00:42:42;;;;;;;16.17;4.05;;;;;;;18.69;100.00;101687.59;2094131;28;20062;-73
2022/10/17 00:44:07;;;;;;;17.50;3.70;;;;;;;18.69;100.00;101678.66;2099241;28;20147;-73
2022/10/17 00:45:31;;;;;;;16.70;4.15;;;;;;;18.68;100.00;101687.59;2094026;28;20040;-73
2022/10/17 00:46:53;;;;;;;18.05;4.45;;;;;;;18.69;100.00;101684.00;2108249;28;20510;-73
2022/10/17 00:48:16;;;;;;;15.68;4.70;;;;;;;18.70;100.00;101678.66;2104411;28;20059;-73
2022/10/17 00:49:38;;;;;;;11.77;3.92;;;;;;;18.69;100.00;101692.03;2104609;28;20123;-73
2022/10/17 00:51:01;;;;;;;13.52;3.28;;;;;;;18.64;100.00;101683.16;2093488;28;20045;-74
2022/10/17 00:52:25;;;;;;;13.02;4.20;;;;;;;18.61;100.00;101662.63;2090989;28;20052;-73
2022/10/17 00:53:48;;;;;;;13.93;4.03;;;;;;;18.58;100.00;101678.66;2093844;28;20032;-74
2022/10/17 00:55:15;;;;;;;14.35;4.65;;;;;;;18.55;100.00;101681.38;2093640;28;20056;-73
2022/10/17 00:56:39;;;;;;;17.10;4.05;;;;;;;18.53;100.00;101684.91;2095830;28;20040;-73
2022/10/17 00:58:05;;;;;;;17.65;3.97;;;;;;;18.55;100.00;101694.75;2085305;28;20122;-73
2022/10/17 00:59:29;;;;;;;20.08;4.75;;;;;;;18.56;100.00;101679.59;2090102;28;20136;-73
2022/10/17 01:00:51;;;;;;;20.58;4.90;;;;;;;18.57;100.00;101674.25;2099466;28;20044;-73
2022/10/17 01:02:15;;;;;;;19.65;3.95;;;;;;;18.60;100.00;101676.00;2093604;28;20530;-73
2022/10/17 01:03:38;;;;;;;17.23;4.28;;;;;;;18.62;100.00;101685.81;2082965;28;20503;-73
2022/10/17 01:05:00;;;;;;;16.75;4.05;;;;;;;18.66;100.00;101687.56;2088389;28;20046;-73
2022/10/17 01:06:23;;;;;;;7.72;3.40;;;;;;;18.66;100.00;101679.56;2090973;28;20059;-73
2022/10/17 01:07:47;;;;;;;12.38;4.40;;;;;;;18.65;100.00;101675.09;2107220;28;20072;-73
2022/10/17 01:09:10;;;;;;;11.00;4.35;;;;;;;18.69;100.00;101692.03;2096136;28;20052;-73
2022/10/17 01:10:40;;;;;;;16.10;4.65;;;;;;;18.72;100.00;101692.00;2085022;28;20094;-74
2022/10/17 01:12:09;;;;;;;21.58;4.35;;;;;;;18.71;100.00;101679.53;2093456;28;20052;-73
2022/10/17 01:13:38;;;;;;;19.95;4.40;;;;;;;18.71;100.00;101683.09;2098957;28;20044;-73
2022/10/17 01:15:13;;;;;;;12.30;4.00;;;;;;;18.71;100.00;101680.41;2094303;28;20523;-73
2022/10/17 01:16:40;;;;;;;17.10;3.95;;;;;;;18.73;100.00;101674.19;2094233;28;20548;-73
2022/10/17 01:18:14;;;;;;;9.95;3.72;;;;;;;18.73;100.00;101687.56;2100160;28;20055;-73
2022/10/17 01:20:01;;;;;;;18.30;5.10;;;;;;;18.71;100.00;101679.53;2104583;28;20093;-73
2022/10/17 01:21:45;;;;;;;13.75;4.03;;;;;;;18.70;100.00;101686.69;2097507;28;20060;-73
2022/10/17 01:23:26;;;;;;;11.77;3.45;;;;;;;18.72;100.00;101686.66;2097574;28;20478;-74
2022/10/17 01:25:01;;;;;;;19.77;4.32;;;;;;;18.69;100.00;101692.03;2081349;28;20136;-73
2022/10/17 01:26:35;;;;;;;13.30;4.22;;;;;;;18.71;100.00;101691.13;2095063;28;20044;-73
2022/10/17 01:28:16;;;;;;;20.55;4.22;;;;;;;18.71;100.00;101680.41;2088350;28;20084;-73
2022/10/17 01:29:53;;;;;;;17.23;4.90;;;;;;;18.73;100.00;101685.78;2088710;28;20459;-74
2022/10/17 01:31:19;;;;;;;17.10;4.30;;;;;;;18.74;100.00;101674.19;2096561;28;20041;-73
2022/10/17 01:32:47;;;;;;;13.45;3.50;;;;;;;18.71;100.00;101680.41;2094987;28;20041;-73
2022/10/17 01:34:15;;;;;;;12.95;3.63;;;;;;;18.69;100.00;101684.91;2087327;28;20111;-73
2022/10/17 01:35:43;;;;;;;14.13;3.63;;;;;;;18.69;100.00;101686.69;2085772;28;20041;-73
2022/10/17 01:37:17;;;;;;;16.83;4.47;;;;;;;18.69;100.00;101684.91;2093880;28;20169;-73
2022/10/17 01:38:45;;;;;;;16.67;4.70;;;;;;;18.70;100.00;101699.19;2089103;28;20045;-73
2022/10/17 01:40:10;;;;;;;14.50;3.90;;;;;;;18.70;100.00;101688.47;2100444;28;20054;-73
2022/10/17 01:41:39;;;;;;;15.25;3.67;;;;;;;18.70;100.00;101673.31;2095420;28;20037;-73
2022/10/17 01:43:07;;;;;;;20.17;4.07;;;;;;;18.69;100.00;101684.00;2102273;28;20058;-73
2022/10/17 01:44:38;;;;;;;15.98;4.13;;;;;;;18.67;100.00;101685.78;2095574;28;20090;-73
2022/10/17 01:46:04;;;;;;;14.98;4.30;;;;;;;18.63;100.00;101682.25;2087477;28;20203;-73
2022/10/17 01:47:31;;;;;;;15.48;4.45;;;;;;;18.63;100.00;101687.59;2093717;28;20129;-74
2022/10/17 01:48:59;;;;;;;17.67;4.78;;;;;;;18.64;100.00;101677.78;2103986;28;20073;-73
2022/10/17 01:50:28;;;;;;;16.58;3.75;;;;;;;18.62;100.00;101674.22;2086767;28;20067;-73
2022/10/17 01:51:57;;;;;;;14.68;4.75;;;;;;;18.59;100.00;101677.78;2087424;28;20049;-73
2022/10/17 01:53:26;;;;;;;15.15;4.18;;;;;;;18.56;100.00;101677.81;2095585;28;20139;-73
2022/10/17 01:54:53;;;;;;;13.68;4.00;;;;;;;18.54;100.00;101676.88;2109925;28;20052;-73
2022/10/17 01:56:16;;;;;;;25.27;5.55;;;;;;;18.52;100.00;101680.44;2105637;28;20126;-73
2022/10/17 01:57:44;;;;;;;11.98;3.80;;;;;;;18.49;100.00;101673.34;2095366;28;20052;-73
2022/10/17 01:59:11;;;;;;;18.17;4.47;;;;;;;18.48;100.00;101676.91;2101092;28;20115;-73
2022/10/17 02:00:36;;;;;;;12.77;4.57;;;;;;;18.47;100.00;101683.13;2095476;28;20052;-73
2022/10/17 02:02:00;;;;;;;15.95;3.83;;;;;;;18.48;100.00;101684.03;2093189;28;20036;-73
2022/10/17 02:03:26;;;;;;;16.23;4.25;;;;;;;18.48;100.00;101690.28;2090532;28;20041;-74
2022/10/17 02:04:51;;;;;;;14.07;3.97;;;;;;;18.47;100.00;101685.81;2101188;28;20055;-73
2022/10/17 02:06:12;;;;;;;19.20;5.05;;;;;;;18.47;100.00;101675.13;2097320;28;20047;-73
2022/10/17 02:07:35;;;;;;;14.15;4.05;;;;;;;18.48;100.00;101684.03;2100109;28;20066;-73
2022/10/17 02:08:58;;;;;;;25.00;4.45;;;;;;;18.53;100.00;101687.56;2094666;28;20148;-73
2022/10/17 02:10:29;;;;;;;15.43;4.20;;;;;;;18.57;100.00;101692.97;2094856;28;20541;-73
2022/10/17 02:12:11;;;;;;;17.58;4.18;;;;;;;18.61;100.00;101692.06;2104405;28;20047;-73
2022/10/17 02:13:46;;;;;;;16.98;4.10;;;;;;;18.64;100.00;101688.50;2096950;28;20072;-73
2022/10/17 02:15:27;;;;;;;13.63;4.55;;;;;;;18.66;100.00;101692.94;2096334;28;20087;-74
2022/10/17 02:17:00;;;;;;;14.68;4.25;;;;;;;18.67;100.00;101705.41;2097329;28;20040;-73
2022/10/17 02:18:43;;;;;;;20.27;4.70;;;;;;;18.69;100.00;101694.72;2095200;28;20399;-74
2022/10/17 02:20:16;;;;;;;25.23;5.40;;;;;;;18.69;100.00;101687.59;2088648;28;20140;-73
2022/10/17 02:21:47;;;;;;;17.65;3.97;;;;;;;18.67;100.00;101692.03;2097667;28;20146;-73
2022/10/17 02:23:14;;;;;;;17.38;4.88;;;;;;;18.66;100.00;101690.25;2095876;28;20048;-73
2022/10/17 02:24:47;;;;;;;14.68;3.90;;;;;;;18.66;100.00;101694.72;2104027;28;20055;-73
2022/10/17 02:26:16;;;;;;;17.00;4.45;;;;;;;18.64;100.00;101693.84;2079656;28;20611;-73
2022/10/17 02:27:47;;;;;;;13.80;4.10;;;;;;;18.66;100.00;101690.25;2092146;28;20054;-73
2022/10/17 02:29:16;;;;;;;17.52;5.47;;;;;;;18.68;100.00;101690.25;2094433;28;20129;-72
2022/10/17 02:30:46;;;;;;;11.52;3.80;;;;;;;18.69;100.00;101692.94;2094709;28;20498;-73
2022/10/17 02:32:16;;;;;;;16.52;5.03;;;;;;;18.71;100.00;101692.91;2094600;28;20574;-73
2022/10/17 02:33:44;;;;;;;12.50;3.95;;;;;;;18.70;100.00;101692.03;2095237;28;20037;-73
2022/10/17 02:35:10;;;;;;;16.05;4.43;;;;;;;18.71;100.00;101677.75;2101575;28;20040;-73
2022/10/17 02:36:40;;;;;;;17.27;4.18;;;;;;;18.72;100.00;101686.66;2103478;28;20055;-73
2022/10/17 02:38:08;;;;;;;14.85;3.55;;;;;;;18.73;100.00;101682.19;2095767;28;20045;-73
2022/10/17 02:39:32;;;;;;;15.38;3.80;;;;;;;18.75;100.00;101684.00;2095047;28;20079;-73
2022/10/17 02:40:55;;;;;;;16.10;4.18;;;;;;;18.74;100.00;101684.00;2096333;28;20036;-73
2022/10/17 02:42:21;;;;;;;14.23;3.78;;;;;;;18.71;100.00;101683.09;2093193;28;20066;-73
2022/10/17 02:43:44;;;;;;;16.77;4.47;;;;;;;18.72;100.00;101686.66;2102721;28;20602;-73
2022/10/17 02:45:09;;;;;;;12.07;4.10;;;;;;;18.75;100.00;101691.13;2097141;28;20052;-73
2022/10/17 02:46:33;;;;;;;19.13;3.83;;;;;;;18.73;100.00;101688.44;2100926;28;20460;-72
2022/10/17 02:48:01;;;;;;;18.20;4.03;;;;;;;18.74;100.00;101679.53;2103010;28;20586;-73
2022/10/17 02:49:28;;;;;;;12.05;3.47;;;;;;;18.71;100.00;101671.50;2103390;28;20138;-73
2022/10/17 02:50:58;;;;;;;10.77;3.70;;;;;;;18.72;100.00;101686.66;2086497;28;20055;-72
2022/10/17 02:52:28;;;;;;;13.95;3.33;;;;;;;18.72;100.00;101686.66;2102103;28;20049;-73
2022/10/17 02:54:00;;;;;;;12.73;4.43;;;;;;;18.71;100.00;101684.88;2096692;28;20047;-73
2022/10/17 02:55:30;;;;;;;16.90;4.22;;;;;;;18.72;100.00;101700.03;2095217;28;20090;-72
2022/10/17 02:56:58;;;;;;;17.15;4.45;;;;;;;18.70;100.00;101688.47;2093970;28;20491;-72
2022/10/17 02:58:25;;;;;;;19.55;5.13;;;;;;;18.67;100.00;101689.38;2097597;28;20049;-74
2022/10/17 02:59:48;;;;;;;13.98;3.83;;;;;;;18.65;100.00;101687.56;2088541;28;20052;-73
2022/10/17 03:01:10;;;;;;;17.15;4.68;;;;;;;18.66;100.00;101689.34;2092101;28;20537;-73
2022/10/17 03:02:40;;;;;;;14.20;4.38;;;;;;;18.69;100.00;101692.03;2094187;28;20048;-72
2022/10/17 03:04:08;;;;;;;15.77;4.03;;;;;;;18.70;100.00;101689.38;2087127;28;20558;-73
2022/10/17 03:05:31;;;;;;;24.83;5.28;;;;;;;18.72;100.00;101697.38;2093058;28;20527;-73
2022/10/17 03:06:55;;;;;;;10.82;4.55;;;;;;;18.74;100.00;101702.72;2094549;28;20154;-72
2022/10/17 03:08:18;;;;;;;17.17;4.28;;;;;;;18.77;100.00;101695.59;2091501;28;20109;-73
2022/10/17 03:09:40;;;;;;;14.48;3.63;;;;;;;18.79;100.00;101703.59;2091144;28;20068;-73
2022/10/17 03:11:03;;;;;;;16.98;4.03;;;;;;;18.81;100.00;101700.03;2093981;28;20466;-73
2022/10/17 03:12:24;;;;;;;12.75;3.80;;;;;;;18.80;100.00;101684.88;2091781;28;20590;-73
2022/10/17 03:13:48;;;;;;;15.07;4.30;;;;;;;18.82;100.00;101687.53;2083266;28;20049;-73
2022/10/17 03:15:12;;;;;;;11.82;3.88;;;;;;;18.81;100.00;101697.34;2089582;28;20106;-73
2022/10/17 03:16:35;;;;;;;15.48;4.10;;;;;;;18.82;100.00;101698.25;2091820;28;20373;-73
2022/10/17 03:17:59;;;;;;;10.80;4.18;;;;;;;18.79;100.00;101695.56;2091738;28;20135;-73
2022/10/17 03:19:22;;;;;;;19.05;4.50;;;;;;;18.77;100.00;101698.28;2091547;28;20053;-73
2022/10/17 03:20:47;;;;;;;16.35;4.25;;;;;;;18.80;100.00;101692.00;2093699;28;20044;-73
2022/10/17 03:22:10;;;;;;;17.45;3.90;;;;;;;18.78;100.00;101686.66;2091391;28;20106;-73
2022/10/17 03:23:33;;;;;;;22.90;4.43;;;;;;;18.81;100.00;101681.28;2091446;28;20032;-74
2022/10/17 03:24:57;;;;;;;19.98;4.45;;;;;;;18.80;100.00;101692.88;2093067;28;20052;-73
2022/10/17 03:26:20;;;;;;;14.68;4.97;;;;;;;18.80;100.00;101681.28;2094033;28;20059;-73
2022/10/17 03:27:43;;;;;;;15.40;4.45;;;;;;;18.78;100.00;101672.38;2099237;28;20071;-73
2022/10/17 03:29:05;;;;;;;19.63;4.65;;;;;;;18.76;100.00;101680.44;2091240;28;20097;-73
2022/10/17 03:30:30;;;;;;;15.27;4.07;;;;;;;18.75;100.00;101684.00;2089617;28;20092;-73
2022/10/17 03:31:52;;;;;;;14.38;3.92;;;;;;;18.75;100.00;101688.44;2091950;28;20129;-72
2022/10/17 03:33:15;;;;;;;12.57;3.97;;;;;;;18.71;100.00;101679.53;2096664;28;20518;-74
2022/10/17 03:34:36;;;;;;;12.32;4.07;;;;;;;18.68;100.00;101663.50;2095439;28;20093;-72
2022/10/17 03:36:04;;;;;;;15.07;3.38;;;;;;;18.64;100.00;101659.06;2093992;28;20048;-73
2022/10/17 03:37:27;;;;;;;14.60;3.50;;;;;;;18.64;100.00;101678.66;2099299;28;20108;-73
2022/10/17 03:38:53;;;;;;;14.82;4.10;;;;;;;18.64;100.00;101678.66;2091396;28;21605;-72
2022/10/17 03:40:17;;;;;;;16.77;4.40;;;;;;;18.67;100.00;101662.63;2091811;28;20484;-73
2022/10/17 03:41:39;;;;;;;16.05;4.00;;;;;;;18.70;100.00;101680.44;2088451;28;20053;-72
2022/10/17 03:43:01;;;;;;;19.40;3.83;;;;;;;18.74;100.00;101684.00;2091793;28;20041;-73
2022/10/17 03:44:25;;;;;;;12.30;3.28;;;;;;;18.73;100.00;101675.06;2095896;28;20048;-74
2022/10/17 03:45:48;;;;;;;24.38;5.25;;;;;;;18.75;100.00;101677.75;2094426;28;20131;-72
2022/10/17 03:47:10;;;;;;;15.30;3.88;;;;;;;18.76;100.00;101666.16;2091849;28;20050;-73
2022/10/17 03:48:32;;;;;;;14.23;3.55;;;;;;;18.76;100.00;101671.50;2104880;28;20084;-73
2022/10/17 03:49:55;;;;;;;17.48;4.50;;;;;;;18.75;100.00;101651.91;2100857;28;20044;-73
2022/10/17 03:51:19;;;;;;;18.38;4.80;;;;;;;18.74;100.00;101655.47;2091163;28;20051;-73
2022/10/17 03:52:47;;;;;;;11.50;3.63;;;;;;;18.74;100.00;101655.47;2090497;28;20135;-73
2022/10/17 03:54:09;;;;;;;16.73;4.10;;;;;;;18.75;100.00;101661.69;2089485;28;20086;-73
2022/10/17 03:55:31;;;;;;;24.60;4.28;;;;;;;18.76;100.00;101651.00;2097557;28;20040;-73
2022/10/17 03:56:53;;;;;;;17.15;3.80;;;;;;;18.74;100.00;101644.75;2099547;28;20145;-74
2022/10/17 03:58:16;;;;;;;12.07;4.07;;;;;;;18.74;100.00;101658.13;2090836;28;20385;-74
2022/10/17 03:59:40;;;;;;;13.70;4.07;;;;;;;18.74;100.00;101651.88;2089368;28;20127;-73
2022/10/17 04:01:11;;;;;;;16.98;4.15;;;;;;;18.74;100.00;101639.41;2099113;28;20048;-73
2022/10/17 04:02:34;;;;;;;19.10;5.03;;;;;;;18.71;100.00;101658.13;2091745;28;20136;-73
2022/10/17 04:03:56;;;;;;;16.00;3.65;;;;;;;18.72;100.00;101662.59;2099337;28;20054;-72
2022/10/17 04:05:19;;;;;;;14.85;4.00;;;;;;;18.73;100.00;101663.47;2093909;28;20041;-73
2022/10/17 04:06:44;;;;;;;13.23;3.05;;;;;;;18.74;100.00;101663.47;2097427;28;20052;-73
2022/10/17 04:08:07;;;;;;;19.05;4.13;;;;;;;18.74;100.00;101667.94;2099079;28;20068;-72
2022/10/17 04:09:52;;;;;;;11.95;3.60;;;;;;;18.71;100.00;101669.72;2102619;28;20046;-72
2022/10/17 04:11:17;;;;;;;15.75;4.53;;;;;;;18.70;100.00;101677.78;2091538;28;20191;-73
2022/10/17 04:12:40;;;;;;;20.33;4.75;;;;;;;18.68;100.00;101675.09;2088530;28;20056;-73
2022/10/17 04:14:01;;;;;;;17.35;5.38;;;;;;;18.65;100.00;101671.53;2088755;28;20148;-72
2022/10/17 04:15:26;;;;;;;10.80;3.45;;;;;;;18.62;100.00;101668.88;2088992;28;20057;-73
2022/10/17 04:16:47;;;;;;;16.92;3.70;;;;;;;18.60;100.00;101649.25;2081433;28;20760;-73
2022/10/17 04:18:16;;;;;;;19.15;4.13;;;;;;;18.58;100.00;101667.97;2101221;28;20131;-73
2022/10/17 04:19:38;;;;;;;13.23;3.47;;;;;;;18.58;100.00;101667.09;2085228;28;20127;-73
2022/10/17 04:21:01;;;;;;;12.93;3.30;;;;;;;18.58;100.00;101664.41;2089056;28;20071;-73
2022/10/17 04:22:25;;;;;;;;;;;;;;;18.53;100.00;101671.53;2099858;28;20047;-73
2022/10/17 04:23:46;;;;;;;17.10;3.88;;;;;;;18.52;100.00;101675.09;2096116;28;20011;-73
2022/10/17 04:25:23;;;;;;;14.68;4.45;;;;;;;18.51;100.00;101681.38;2087569;28;20536;-73
2022/10/17 04:26:50;;;;;;;16.73;4.55;;;;;;;18.51;100.00;101666.19;2101633;28;20517;-74
2022/10/17 04:28:12;;;;;;;21.23;4.50;;;;;;;18.53;100.00;101674.19;2088213;28;20051;-73
2022/10/17 04:29:34;;;;;;;17.73;4.00;;;;;;;18.55;100.00;101675.09;2090921;28;20056;-73
2022/10/17 04:31:07;;;;;;;15.75;4.25;;;;;;;18.55;100.00;101678.69;2086737;28;20148;-73
2022/10/17 04:32:39;;;;;;;14.20;4.13;;;;;;;18.60;100.00;101676.00;2083900;28;20060;-73
2022/10/17 04:34:07;;;;;;;12.88;3.20;;;;;;;18.63;100.00;101671.56;2093413;28;20037;-74
2022/10/17 04:35:30;;;;;;;11.98;3.38;;;;;;;18.66;100.00;101684.00;2093650;28;20599;-74
2022/10/17 04:36:57;;;;;;;14.57;3.85;;;;;;;18.66;100.00;101687.56;2094565;28;20072;-73
2022/10/17 04:38:21;;;;;;;10.77;3.90;;;;;;;18.67;100.00;101685.78;2093554;28;20067;-73
2022/10/17 04:39:44;;;;;;;21.60;4.18;;;;;;;18.69;100.00;101692.03;2093552;28;20441;-72
2022/10/17 04:41:07;;;;;;;14.77;3.78;;;;;;;18.71;100.00;101688.44;2095859;28;20052;-73
2022/10/17 04:42:29;;;;;;;13.18;3.67;;;;;;;18.76;100.00;101698.25;2093604;28;20044;-73
2022/10/17 04:43:52;;;;;;;14.23;3.55;;;;;;;18.78;100.00;101688.44;2093326;28;20488;-73
2022/10/17 04:45:16;;;;;;;13.20;3.42;;;;;;;18.80;100.00;101697.34;2091755;28;20135;-73
2022/10/17 04:46:39;;;;;;;12.38;3.63;;;;;;;18.81;100.00;101696.47;2090813;28;20049;-71
2022/10/17 04:48:01;;;;;;;13.38;3.25;;;;;;;18.81;100.00;101700.03;2090649;28;20070;-73
2022/10/17 04:49:24;;;;;;;14.13;3.60;;;;;;;18.83;100.00;101702.69;2090682;28;20044;-73
2022/10/17 04:50:56;;;;;;;11.30;2.83;;;;;;;18.84;100.00;101691.97;2090934;28;20095;-72
2022/10/17 04:52:28;;;;;;;20.60;4.13;;;;;;;18.85;100.00;101696.44;2098285;28;20079;-73
2022/10/17 04:53:52;;;;;;;18.83;3.85;;;;;;;18.86;100.00;101703.56;2093705;28;20047;-72
2022/10/17 04:55:14;;;;;;;14.27;4.15;;;;;;;18.88;100.00;101708.94;2101247;28;20056;-73
2022/10/17 04:56:36;;;;;;;13.75;3.58;;;;;;;18.90;100.00;101704.47;2095143;28;20041;-73
2022/10/17 04:57:59;;;;;;;16.77;4.10;;;;;;;18.91;100.00;101700.88;2100668;28;20044;-73
2022/10/17 04:59:21;;;;;;;13.18;4.43;;;;;;;18.94;100.00;101709.78;2097892;28;20059;-73
2022/10/17 05:00:51;;;;;;;14.38;3.72;;;;;;;18.97;100.00;101707.09;2094172;28;20497;-72
2022/10/17 05:02:20;;;;;;;17.10;3.88;;;;;;;18.97;100.00;101700.88;2093995;28;20047;-73
2022/10/17 05:03:43;;;;;;;16.83;4.32;;;;;;;18.98;100.00;101706.19;2100944;28;21435;-72
2022/10/17 05:05:06;;;;;;;11.70;3.30;;;;;;;18.97;100.00;101709.75;2095047;28;20086;-72
2022/10/17 05:06:30;;;;;;;13.10;4.07;;;;;;;18.98;100.00;101716.91;2087098;28;20060;-72
2022/10/17 05:08:18;;;;;;;17.80;3.75;;;;;;;19.00;100.00;101715.13;2097710;28;20534;-73
2022/10/17 05:09:41;;;;;;;18.23;4.20;;;;;;;19.03;100.00;101708.88;2095285;28;20047;-72
2022/10/17 05:11:04;;;;;;;20.23;4.78;;;;;;;19.02;100.00;101716.00;2098814;28;20044;-73
2022/10/17 05:12:26;;;;;;;17.40;4.18;;;;;;;19.01;100.00;101711.56;2095321;28;20063;-73
2022/10/17 05:13:54;;;;;;;14.80;3.88;;;;;;;19.03;100.00;101722.25;2092460;28;20059;-73
2022/10/17 05:15:17;;;;;;;15.10;4.60;;;;;;;19.02;100.00;101718.69;2095412;28;20535;-72
2022/10/17 05:16:40;;;;;;;14.50;3.90;;;;;;;19.01;100.00;101716.91;2103253;28;20134;-72
2022/10/17 05:18:04;;;;;;;11.77;4.20;;;;;;;18.99;100.00;101721.38;2095108;28;20045;-73
2022/10/17 05:19:26;;;;;;;13.95;3.50;;;;;;;18.99;100.00;101720.47;2092687;28;20040;-73
2022/10/17 05:20:50;;;;;;;14.02;3.63;;;;;;;18.99;100.00;101723.16;2101138;28;20068;-72
2022/10/17 05:22:12;;;;;;;13.48;3.50;;;;;;;18.97;100.00;101720.47;2095145;28;20072;-72
2022/10/17 05:23:37;;;;;;;17.85;3.28;;;;;;;18.97;100.00;101730.31;2092062;28;20051;-72
2022/10/17 05:25:00;;;;;;;14.05;3.97;;;;;;;18.98;100.00;101737.41;2092895;28;20063;-72
2022/10/17 05:26:23;;;;;;;16.55;4.15;;;;;;;18.97;100.00;101731.19;2086582;28;20574;-72
2022/10/17 05:27:45;;;;;;;12.73;4.15;;;;;;;18.96;100.00;101745.47;2084413;28;20389;-73
2022/10/17 05:29:08;;;;;;;14.80;4.10;;;;;;;18.97;100.00;101741.88;2090256;28;20046;-72
2022/10/17 05:30:36;;;;;;;18.98;3.53;;;;;;;18.98;100.00;101735.63;2092249;28;20040;-72
2022/10/17 05:31:57;;;;;;;13.52;3.72;;;;;;;19.03;100.00;101743.69;2100918;28;20646;-73
2022/10/17 05:33:20;;;;;;;17.58;3.83;;;;;;;19.07;100.00;101743.66;2089488;28;20043;-72
2022/10/17 05:34:43;;;;;;;16.45;3.80;;;;;;;19.14;100.00;101732.91;2092370;28;20053;-73
2022/10/17 05:36:07;;;;;;;16.73;4.00;;;;;;;19.20;100.00;101731.09;2094946;28;20052;-73
2022/10/17 05:37:30;;;;;;;17.50;4.40;;;;;;;19.22;100.00;101728.44;2086638;28;20049;-73
2022/10/17 05:38:53;;;;;;;17.65;4.30;;;;;;;19.24;100.00;101718.56;2091962;28;20044;-73
2022/10/17 05:40:18;;;;;;;12.93;3.28;;;;;;;19.26;100.00;101735.53;2092217;28;20074;-73
2022/10/17 05:41:41;;;;;;;14.75;4.68;;;;;;;19.29;100.00;101739.09;2095030;28;20048;-72
2022/10/17 05:43:03;;;;;;;14.35;3.58;;;;;;;19.33;100.00;101748.00;2103264;28;20048;-73
2022/10/17 05:44:26;;;;;;;13.90;3.90;;;;;;;19.35;100.00;101743.53;2102708;28;20086;-72
2022/10/17 05:45:51;;;;;;;17.55;4.47;;;;;;;19.39;100.00;101737.25;2089501;28;20555;-73
2022/10/17 05:47:14;;;;;;;25.13;5.80;;;;;;;19.46;100.00;101736.38;2092751;28;20434;-72
2022/10/17 05:48:37;;;;;;;14.38;3.92;;;;;;;19.52;100.00;101744.38;2094419;28;20053;-73
2022/10/17 05:50:00;;;;;;;17.40;4.05;;;;;;;19.54;100.00;101744.38;2086890;28;20512;-73
2022/10/17 05:51:29;;;;;;;11.93;3.15;;;;;;;19.53;100.00;101740.78;2095386;28;20083;-72
2022/10/17 05:52:53;;;;;;;19.17;3.25;;;;;;;19.51;100.00;101726.50;2086469;28;20052;-73
2022/10/17 05:54:15;;;;;;;13.43;3.55;;;;;;;19.53;100.00;101738.13;2092600;28;20052;-72
2022/10/17 05:55:38;;;;;;;20.40;4.32;;;;;;;19.58;100.00;101736.28;2094283;28;20040;-72
2022/10/17 05:57:00;;;;;;;16.60;3.60;;;;;;;19.61;100.00;101738.97;2094718;28;20045;-72
2022/10/17 05:58:27;;;;;;;17.30;3.92;;;;;;;19.62;100.00;101731.81;2086597;28;20049;-72
2022/10/17 05:59:52;;;;;;;19.20;4.93;;;;;;;19.58;100.00;101743.44;2093158;28;20471;-73
2022/10/17 06:01:16;;;;;;;8.45;2.75;;;;;;;19.52;100.00;101752.41;2089064;28;20053;-72
2022/10/17 06:02:38;;;;;;;15.90;3.38;;;;;;;19.49;100.00;101741.72;2092363;28;20044;-73
2022/10/17 06:04:01;;;;;;;12.05;2.65;;;;;;;19.47;100.00;101744.41;2103119;28;20040;-73
2022/10/17 06:05:24;;;;;;;12.00;3.05;;;;;;;19.52;100.00;101747.03;2088436;28;20052;-72
2022/10/17 06:06:46;;;;;;;11.15;3.00;;;;;;;19.60;100.00;101749.69;2095083;28;20492;-72
2022/10/17 06:08:09;;;;;;;14.93;4.30;;;;;;;19.59;100.00;101748.78;2086513;28;20057;-72
2022/10/17 06:09:32;;;;;;;14.93;3.67;;;;;;;19.55;100.00;101755.09;2086526;28;20097;-72
2022/10/17 06:10:56;;;;;;;11.68;2.85;;;;;;;19.55;100.00;101752.41;2091956;28;20109;-73
2022/10/17 06:12:19;;;;;;;13.93;2.97;;;;;;;19.57;100.00;101745.22;2094140;28;20607;-72
2022/10/17 06:13:42;;;;;;;15.05;3.35;;;;;;;19.57;100.00;101744.34;2092014;28;20144;-72
2022/10/17 06:15:12;;;;;;;16.98;3.30;;;;;;;19.53;100.00;101746.16;2093415;28;20048;-72
2022/10/17 06:16:38;;;;;;;11.57;3.53;;;;;;;19.48;100.00;101745.28;2088684;28;20455;-72
2022/10/17 06:18:00;;;;;;;10.05;2.60;;;;;;;19.45;100.00;101747.94;2097717;28;20493;-72
2022/10/17 06:19:22;;;;;;;15.75;4.20;;;;;;;19.52;100.00;101741.69;2102477;28;20532;-72
2022/10/17 06:20:44;;;;;;;12.40;3.30;;;;;;;19.74;100.00;101738.00;2102691;28;20044;-73
2022/10/17 06:22:07;;;;;;;19.40;4.82;;;;;;;19.92;100.00;101744.13;2105659;28;20048;-72
2022/10/17 06:23:31;;;;;;;11.40;3.40;;;;;;;20.01;100.00;101736.91;2094708;28;20119;-73
2022/10/17 06:25:04;;;;;;;16.38;3.85;;;;;;;20.02;100.00;101721.72;2094976;28;20523;-72
2022/10/17 06:26:28;;;;;;;19.33;3.78;;;;;;;19.98;100.00;101728.00;2091808;28;20508;-72
2022/10/17 06:27:51;;;;;;;14.32;3.97;;;;;;;19.95;100.00;101731.59;2094999;28;20052;-73
2022/10/17 06:29:14;;;;;;;14.00;3.38;;;;;;;19.96;100.00;101746.75;2100177;28;20076;-72